sensor_id;sensor_type;location;lat;lon;timestamp;P1;durP1;ratioP1;P2;durP2;ratioP2
52186;SDS011;38161;53.020;6.598;2024-01-30T00:01:42;20.08;;;14.00;;
52186;SDS011;38161;53.020;6.598;2024-01-30T00:04:08;17.53;;;12.87;;
52186;SDS011;38161;53.020;6.598;2024-01-30T00:06:34;18.77;;;13.73;;
52186;SDS011;38161;53.020;6.598;2024-01-30T00:08:59;21.27;;;12.90;;
52186;SDS011;38161;53.020;6.598;2024-01-30T00:11:25;20.70;;;14.07;;
52186;SDS011;38161;53.020;6.598;2024-01-30T00:13:51;19.07;;;13.77;;
52186;SDS011;38161;53.020;6.598;2024-01-30T00:16:23;22.77;;;13.40;;
52186;SDS011;38161;53.020;6.598;2024-01-30T00:18:50;18.65;;;13.20;;
52186;SDS011;38161;53.020;6.598;2024-01-30T00:21:16;19.08;;;13.02;;
52186;SDS011;38161;53.020;6.598;2024-01-30T00:23:42;19.27;;;13.82;;
52186;SDS011;38161;53.020;6.598;2024-01-30T00:26:08;22.17;;;15.00;;
52186;SDS011;38161;53.020;6.598;2024-01-30T00:28:34;21.45;;;15.63;;
52186;SDS011;38161;53.020;6.598;2024-01-30T00:31:00;21.10;;;14.88;;
52186;SDS011;38161;53.020;6.598;2024-01-30T00:33:26;18.67;;;13.70;;
52186;SDS011;38161;53.020;6.598;2024-01-30T00:35:52;20.90;;;14.70;;
52186;SDS011;38161;53.020;6.598;2024-01-30T00:38:18;20.63;;;14.33;;
52186;SDS011;38161;53.020;6.598;2024-01-30T00:40:43;22.37;;;14.47;;
52186;SDS011;38161;53.020;6.598;2024-01-30T00:43:09;19.67;;;13.77;;
52186;SDS011;38161;53.020;6.598;2024-01-30T00:45:35;23.17;;;15.18;;
52186;SDS011;38161;53.020;6.598;2024-01-30T00:48:01;19.87;;;14.67;;
52186;SDS011;38161;53.020;6.598;2024-01-30T00:50:26;21.47;;;15.03;;
52186;SDS011;38161;53.020;6.598;2024-01-30T00:52:52;21.60;;;15.00;;
52186;SDS011;38161;53.020;6.598;2024-01-30T00:55:18;20.57;;;15.57;;
52186;SDS011;38161;53.020;6.598;2024-01-30T00:57:44;20.52;;;14.57;;
52186;SDS011;38161;53.020;6.598;2024-01-30T01:00:10;20.27;;;14.40;;
52186;SDS011;38161;53.020;6.598;2024-01-30T01:02:36;21.08;;;14.60;;
52186;SDS011;38161;53.020;6.598;2024-01-30T01:05:02;19.52;;;14.75;;
52186;SDS011;38161;53.020;6.598;2024-01-30T01:07:28;23.02;;;15.43;;
52186;SDS011;38161;53.020;6.598;2024-01-30T01:09:53;23.53;;;15.43;;
52186;SDS011;38161;53.020;6.598;2024-01-30T01:12:19;19.83;;;14.43;;
52186;SDS011;38161;53.020;6.598;2024-01-30T01:14:45;20.40;;;15.17;;
52186;SDS011;38161;53.020;6.598;2024-01-30T01:17:11;20.00;;;14.57;;
52186;SDS011;38161;53.020;6.598;2024-01-30T01:19:37;21.88;;;15.32;;
52186;SDS011;38161;53.020;6.598;2024-01-30T01:22:03;23.47;;;15.40;;
52186;SDS011;38161;53.020;6.598;2024-01-30T01:24:31;22.35;;;15.10;;
52186;SDS011;38161;53.020;6.598;2024-01-30T01:26:58;24.55;;;15.10;;
52186;SDS011;38161;53.020;6.598;2024-01-30T01:29:24;24.90;;;16.00;;
52186;SDS011;38161;53.020;6.598;2024-01-30T01:31:56;22.75;;;14.95;;
52186;SDS011;38161;53.020;6.598;2024-01-30T01:34:22;23.90;;;14.88;;
52186;SDS011;38161;53.020;6.598;2024-01-30T01:36:48;24.45;;;15.77;;
52186;SDS011;38161;53.020;6.598;2024-01-30T01:39:15;22.17;;;16.08;;
52186;SDS011;38161;53.020;6.598;2024-01-30T01:41:41;22.50;;;15.20;;
52186;SDS011;38161;53.020;6.598;2024-01-30T01:44:07;23.38;;;14.80;;
52186;SDS011;38161;53.020;6.598;2024-01-30T01:46:33;21.25;;;13.95;;
52186;SDS011;38161;53.020;6.598;2024-01-30T01:49:00;23.17;;;14.68;;
52186;SDS011;38161;53.020;6.598;2024-01-30T01:51:31;20.23;;;15.20;;
52186;SDS011;38161;53.020;6.598;2024-01-30T01:54:00;20.15;;;14.52;;
52186;SDS011;38161;53.020;6.598;2024-01-30T01:56:29;21.75;;;14.68;;
52186;SDS011;38161;53.020;6.598;2024-01-30T01:58:55;20.20;;;14.00;;
52186;SDS011;38161;53.020;6.598;2024-01-30T02:01:30;20.70;;;13.90;;
52186;SDS011;38161;53.020;6.598;2024-01-30T02:03:58;21.92;;;13.98;;
52186;SDS011;38161;53.020;6.598;2024-01-30T02:06:24;22.48;;;15.15;;
52186;SDS011;38161;53.020;6.598;2024-01-30T02:08:51;19.15;;;13.63;;
52186;SDS011;38161;53.020;6.598;2024-01-30T02:11:17;20.23;;;13.47;;
52186;SDS011;38161;53.020;6.598;2024-01-30T02:13:43;20.15;;;13.60;;
52186;SDS011;38161;53.020;6.598;2024-01-30T02:16:09;19.27;;;14.33;;
52186;SDS011;38161;53.020;6.598;2024-01-30T02:18:35;19.75;;;13.35;;
52186;SDS011;38161;53.020;6.598;2024-01-30T02:21:07;19.92;;;14.48;;
52186;SDS011;38161;53.020;6.598;2024-01-30T02:23:33;20.55;;;13.85;;
52186;SDS011;38161;53.020;6.598;2024-01-30T02:25:59;20.05;;;13.27;;
52186;SDS011;38161;53.020;6.598;2024-01-30T02:28:26;22.20;;;14.77;;
52186;SDS011;38161;53.020;6.598;2024-01-30T02:30:55;19.83;;;13.82;;
52186;SDS011;38161;53.020;6.598;2024-01-30T02:33:20;20.30;;;13.50;;
52186;SDS011;38161;53.020;6.598;2024-01-30T02:35:49;23.27;;;13.82;;
52186;SDS011;38161;53.020;6.598;2024-01-30T02:38:15;23.50;;;15.30;;
52186;SDS011;38161;53.020;6.598;2024-01-30T02:43:07;20.75;;;14.45;;
52186;SDS011;38161;53.020;6.598;2024-01-30T02:45:33;22.23;;;14.90;;
52186;SDS011;38161;53.020;6.598;2024-01-30T02:47:59;19.83;;;12.95;;
52186;SDS011;38161;53.020;6.598;2024-01-30T02:50:24;19.50;;;13.53;;
52186;SDS011;38161;53.020;6.598;2024-01-30T02:52:50;21.10;;;14.93;;
52186;SDS011;38161;53.020;6.598;2024-01-30T02:55:16;19.23;;;13.73;;
52186;SDS011;38161;53.020;6.598;2024-01-30T02:57:45;22.08;;;14.30;;
52186;SDS011;38161;53.020;6.598;2024-01-30T03:00:11;21.92;;;13.82;;
52186;SDS011;38161;53.020;6.598;2024-01-30T03:02:37;20.15;;;14.25;;
52186;SDS011;38161;53.020;6.598;2024-01-30T03:05:04;20.67;;;14.77;;
52186;SDS011;38161;53.020;6.598;2024-01-30T03:07:31;19.85;;;14.25;;
52186;SDS011;38161;53.020;6.598;2024-01-30T03:09:56;19.83;;;13.63;;
52186;SDS011;38161;53.020;6.598;2024-01-30T03:12:22;18.25;;;13.77;;
52186;SDS011;38161;53.020;6.598;2024-01-30T03:14:54;19.33;;;13.77;;
52186;SDS011;38161;53.020;6.598;2024-01-30T03:17:20;24.10;;;14.53;;
52186;SDS011;38161;53.020;6.598;2024-01-30T03:19:48;21.53;;;13.73;;
52186;SDS011;38161;53.020;6.598;2024-01-30T03:22:14;21.52;;;13.73;;
52186;SDS011;38161;53.020;6.598;2024-01-30T03:24:40;21.23;;;14.15;;
52186;SDS011;38161;53.020;6.598;2024-01-30T03:27:06;24.83;;;14.70;;
52186;SDS011;38161;53.020;6.598;2024-01-30T03:29:34;21.13;;;13.57;;
52186;SDS011;38161;53.020;6.598;2024-01-30T03:31:59;20.30;;;13.38;;
52186;SDS011;38161;53.020;6.598;2024-01-30T03:34:25;21.73;;;14.33;;
52186;SDS011;38161;53.020;6.598;2024-01-30T03:36:51;20.60;;;13.63;;
52186;SDS011;38161;53.020;6.598;2024-01-30T03:39:17;21.50;;;13.88;;
52186;SDS011;38161;53.020;6.598;2024-01-30T03:41:43;19.38;;;13.13;;
52186;SDS011;38161;53.020;6.598;2024-01-30T03:44:09;17.77;;;13.55;;
52186;SDS011;38161;53.020;6.598;2024-01-30T03:46:35;22.08;;;13.80;;
52186;SDS011;38161;53.020;6.598;2024-01-30T03:49:01;18.30;;;13.77;;
52186;SDS011;38161;53.020;6.598;2024-01-30T03:51:27;21.60;;;14.27;;
52186;SDS011;38161;53.020;6.598;2024-01-30T03:53:52;19.93;;;14.33;;
52186;SDS011;38161;53.020;6.598;2024-01-30T03:56:18;18.77;;;13.35;;
52186;SDS011;38161;53.020;6.598;2024-01-30T03:58:44;20.50;;;13.60;;
52186;SDS011;38161;53.020;6.598;2024-01-30T04:01:14;20.15;;;13.55;;
52186;SDS011;38161;53.020;6.598;2024-01-30T04:03:40;21.73;;;12.90;;
52186;SDS011;38161;53.020;6.598;2024-01-30T04:06:06;19.13;;;12.60;;
52186;SDS011;38161;53.020;6.598;2024-01-30T04:08:32;20.35;;;13.48;;
52186;SDS011;38161;53.020;6.598;2024-01-30T04:10:58;19.50;;;12.93;;
52186;SDS011;38161;53.020;6.598;2024-01-30T04:13:27;19.38;;;13.23;;
52186;SDS011;38161;53.020;6.598;2024-01-30T04:15:53;19.20;;;12.90;;
52186;SDS011;38161;53.020;6.598;2024-01-30T04:18:20;20.08;;;13.75;;
52186;SDS011;38161;53.020;6.598;2024-01-30T04:20:46;21.73;;;13.43;;
52186;SDS011;38161;53.020;6.598;2024-01-30T04:23:12;21.40;;;13.43;;
52186;SDS011;38161;53.020;6.598;2024-01-30T04:25:38;17.63;;;12.83;;
52186;SDS011;38161;53.020;6.598;2024-01-30T04:28:03;17.30;;;12.73;;
52186;SDS011;38161;53.020;6.598;2024-01-30T04:30:29;19.17;;;13.30;;
52186;SDS011;38161;53.020;6.598;2024-01-30T04:32:55;18.67;;;13.20;;
52186;SDS011;38161;53.020;6.598;2024-01-30T04:35:21;19.90;;;11.80;;
52186;SDS011;38161;53.020;6.598;2024-01-30T04:37:49;18.23;;;12.80;;
52186;SDS011;38161;53.020;6.598;2024-01-30T04:40:17;20.52;;;12.32;;
52186;SDS011;38161;53.020;6.598;2024-01-30T04:42:43;18.30;;;12.95;;
52186;SDS011;38161;53.020;6.598;2024-01-30T04:45:09;18.88;;;12.48;;
52186;SDS011;38161;53.020;6.598;2024-01-30T04:47:35;16.42;;;12.15;;
52186;SDS011;38161;53.020;6.598;2024-01-30T04:50:04;19.52;;;12.60;;
52186;SDS011;38161;53.020;6.598;2024-01-30T04:52:34;19.98;;;12.82;;
52186;SDS011;38161;53.020;6.598;2024-01-30T04:55:00;18.60;;;12.05;;
52186;SDS011;38161;53.020;6.598;2024-01-30T04:57:25;20.55;;;13.43;;
52186;SDS011;38161;53.020;6.598;2024-01-30T04:59:51;19.00;;;11.93;;
52186;SDS011;38161;53.020;6.598;2024-01-30T05:02:17;17.13;;;12.05;;
52186;SDS011;38161;53.020;6.598;2024-01-30T05:04:43;19.40;;;12.45;;
52186;SDS011;38161;53.020;6.598;2024-01-30T05:07:09;19.33;;;12.80;;
52186;SDS011;38161;53.020;6.598;2024-01-30T05:09:34;17.73;;;12.60;;
52186;SDS011;38161;53.020;6.598;2024-01-30T05:12:00;18.93;;;12.87;;
52186;SDS011;38161;53.020;6.598;2024-01-30T05:14:26;20.15;;;12.90;;
52186;SDS011;38161;53.020;6.598;2024-01-30T05:16:52;19.63;;;12.18;;
52186;SDS011;38161;53.020;6.598;2024-01-30T05:19:18;18.77;;;11.70;;
52186;SDS011;38161;53.020;6.598;2024-01-30T05:21:45;17.50;;;12.52;;
52186;SDS011;38161;53.020;6.598;2024-01-30T05:24:11;20.10;;;12.60;;
52186;SDS011;38161;53.020;6.598;2024-01-30T05:26:37;19.63;;;12.40;;
52186;SDS011;38161;53.020;6.598;2024-01-30T05:29:03;18.40;;;12.73;;
52186;SDS011;38161;53.020;6.598;2024-01-30T05:31:29;17.20;;;12.40;;
52186;SDS011;38161;53.020;6.598;2024-01-30T05:33:55;19.30;;;12.63;;
52186;SDS011;38161;53.020;6.598;2024-01-30T05:36:21;18.10;;;12.53;;
52186;SDS011;38161;53.020;6.598;2024-01-30T05:38:47;19.05;;;12.93;;
52186;SDS011;38161;53.020;6.598;2024-01-30T05:41:13;19.05;;;12.60;;
52186;SDS011;38161;53.020;6.598;2024-01-30T05:43:38;21.20;;;12.30;;
52186;SDS011;38161;53.020;6.598;2024-01-30T05:46:04;21.38;;;12.35;;
52186;SDS011;38161;53.020;6.598;2024-01-30T05:48:31;17.60;;;11.55;;
52186;SDS011;38161;53.020;6.598;2024-01-30T05:50:58;17.97;;;12.17;;
52186;SDS011;38161;53.020;6.598;2024-01-30T05:53:28;17.13;;;12.38;;
52186;SDS011;38161;53.020;6.598;2024-01-30T05:55:54;23.73;;;13.05;;
52186;SDS011;38161;53.020;6.598;2024-01-30T05:58:19;19.37;;;12.70;;
52186;SDS011;38161;53.020;6.598;2024-01-30T06:00:46;17.60;;;11.27;;
52186;SDS011;38161;53.020;6.598;2024-01-30T06:03:12;20.42;;;12.40;;
52186;SDS011;38161;53.020;6.598;2024-01-30T06:05:38;18.37;;;12.23;;
52186;SDS011;38161;53.020;6.598;2024-01-30T06:08:04;18.63;;;12.30;;
52186;SDS011;38161;53.020;6.598;2024-01-30T06:10:30;20.45;;;12.68;;
52186;SDS011;38161;53.020;6.598;2024-01-30T06:12:56;17.20;;;11.48;;
52186;SDS011;38161;53.020;6.598;2024-01-30T06:15:21;18.38;;;12.60;;
52186;SDS011;38161;53.020;6.598;2024-01-30T06:17:47;20.17;;;12.10;;
52186;SDS011;38161;53.020;6.598;2024-01-30T06:20:13;21.77;;;11.93;;
52186;SDS011;38161;53.020;6.598;2024-01-30T06:22:39;16.87;;;11.83;;
52186;SDS011;38161;53.020;6.598;2024-01-30T06:25:05;16.33;;;11.20;;
52186;SDS011;38161;53.020;6.598;2024-01-30T06:27:31;18.45;;;12.20;;
52186;SDS011;38161;53.020;6.598;2024-01-30T06:29:57;16.97;;;11.13;;
52186;SDS011;38161;53.020;6.598;2024-01-30T06:32:22;19.43;;;12.33;;
52186;SDS011;38161;53.020;6.598;2024-01-30T06:34:48;18.37;;;12.60;;
52186;SDS011;38161;53.020;6.598;2024-01-30T06:37:14;19.65;;;12.07;;
52186;SDS011;38161;53.020;6.598;2024-01-30T06:39:40;16.40;;;11.53;;
52186;SDS011;38161;53.020;6.598;2024-01-30T06:42:05;17.07;;;11.93;;
52186;SDS011;38161;53.020;6.598;2024-01-30T06:44:31;23.55;;;12.65;;
52186;SDS011;38161;53.020;6.598;2024-01-30T06:46:57;18.92;;;12.10;;
52186;SDS011;38161;53.020;6.598;2024-01-30T06:49:23;15.40;;;11.48;;
52186;SDS011;38161;53.020;6.598;2024-01-30T06:51:49;16.57;;;10.83;;
52186;SDS011;38161;53.020;6.598;2024-01-30T06:54:14;15.80;;;10.53;;
52186;SDS011;38161;53.020;6.598;2024-01-30T06:56:40;16.27;;;11.37;;
52186;SDS011;38161;53.020;6.598;2024-01-30T06:59:06;16.77;;;11.43;;
52186;SDS011;38161;53.020;6.598;2024-01-30T07:01:33;16.77;;;11.18;;
52186;SDS011;38161;53.020;6.598;2024-01-30T07:03:59;16.95;;;11.27;;
52186;SDS011;38161;53.020;6.598;2024-01-30T07:06:25;15.90;;;11.32;;
52186;SDS011;38161;53.020;6.598;2024-01-30T07:08:51;16.58;;;11.35;;
52186;SDS011;38161;53.020;6.598;2024-01-30T07:11:20;16.90;;;10.45;;
52186;SDS011;38161;53.020;6.598;2024-01-30T07:13:47;16.67;;;11.00;;
52186;SDS011;38161;53.020;6.598;2024-01-30T07:18:40;16.10;;;10.50;;
52186;SDS011;38161;53.020;6.598;2024-01-30T07:21:05;18.00;;;11.35;;
52186;SDS011;38161;53.020;6.598;2024-01-30T07:23:31;21.15;;;11.32;;
52186;SDS011;38161;53.020;6.598;2024-01-30T07:25:59;16.10;;;11.40;;
52186;SDS011;38161;53.020;6.598;2024-01-30T07:28:26;16.60;;;11.32;;
52186;SDS011;38161;53.020;6.598;2024-01-30T07:30:51;18.30;;;12.33;;
52186;SDS011;38161;53.020;6.598;2024-01-30T07:33:17;17.00;;;11.52;;
52186;SDS011;38161;53.020;6.598;2024-01-30T07:35:44;17.83;;;11.20;;
52186;SDS011;38161;53.020;6.598;2024-01-30T07:38:10;18.13;;;10.90;;
52186;SDS011;38161;53.020;6.598;2024-01-30T07:40:36;18.70;;;11.40;;
52186;SDS011;38161;53.020;6.598;2024-01-30T07:43:02;17.13;;;11.98;;
52186;SDS011;38161;53.020;6.598;2024-01-30T07:45:28;16.70;;;10.68;;
52186;SDS011;38161;53.020;6.598;2024-01-30T07:47:58;16.45;;;11.68;;
52186;SDS011;38161;53.020;6.598;2024-01-30T07:50:27;17.58;;;11.40;;
52186;SDS011;38161;53.020;6.598;2024-01-30T07:52:53;17.25;;;11.45;;
52186;SDS011;38161;53.020;6.598;2024-01-30T07:55:21;18.60;;;11.88;;
52186;SDS011;38161;53.020;6.598;2024-01-30T07:57:51;17.20;;;11.60;;
52186;SDS011;38161;53.020;6.598;2024-01-30T08:00:17;16.98;;;11.57;;
52186;SDS011;38161;53.020;6.598;2024-01-30T08:02:45;17.92;;;11.32;;
52186;SDS011;38161;53.020;6.598;2024-01-30T08:05:11;17.52;;;11.70;;
52186;SDS011;38161;53.020;6.598;2024-01-30T08:07:37;17.40;;;11.35;;
52186;SDS011;38161;53.020;6.598;2024-01-30T08:10:03;17.58;;;11.43;;
52186;SDS011;38161;53.020;6.598;2024-01-30T08:12:28;16.20;;;11.18;;
52186;SDS011;38161;53.020;6.598;2024-01-30T08:14:54;18.33;;;11.30;;
52186;SDS011;38161;53.020;6.598;2024-01-30T08:17:20;18.17;;;10.63;;
52186;SDS011;38161;53.020;6.598;2024-01-30T08:19:46;17.73;;;11.60;;
52186;SDS011;38161;53.020;6.598;2024-01-30T08:22:12;16.60;;;10.47;;
52186;SDS011;38161;53.020;6.598;2024-01-30T08:24:38;16.63;;;10.57;;
52186;SDS011;38161;53.020;6.598;2024-01-30T08:27:06;17.38;;;11.18;;
52186;SDS011;38161;53.020;6.598;2024-01-30T08:29:34;17.02;;;11.40;;
52186;SDS011;38161;53.020;6.598;2024-01-30T08:32:01;15.00;;;10.48;;
52186;SDS011;38161;53.020;6.598;2024-01-30T08:34:27;16.95;;;11.05;;
52186;SDS011;38161;53.020;6.598;2024-01-30T08:36:53;19.97;;;10.80;;
52186;SDS011;38161;53.020;6.598;2024-01-30T08:39:19;16.20;;;10.75;;
52186;SDS011;38161;53.020;6.598;2024-01-30T08:41:45;18.25;;;10.80;;
52186;SDS011;38161;53.020;6.598;2024-01-30T08:44:10;15.10;;;10.03;;
52186;SDS011;38161;53.020;6.598;2024-01-30T08:46:36;17.70;;;11.10;;
52186;SDS011;38161;53.020;6.598;2024-01-30T08:49:02;15.30;;;10.02;;
52186;SDS011;38161;53.020;6.598;2024-01-30T08:51:29;17.55;;;10.30;;
52186;SDS011;38161;53.020;6.598;2024-01-30T08:53:55;17.92;;;11.10;;
52186;SDS011;38161;53.020;6.598;2024-01-30T08:56:22;21.13;;;13.10;;
52186;SDS011;38161;53.020;6.598;2024-01-30T08:58:48;17.30;;;10.90;;
52186;SDS011;38161;53.020;6.598;2024-01-30T09:01:14;14.90;;;10.57;;
52186;SDS011;38161;53.020;6.598;2024-01-30T09:03:40;16.25;;;10.35;;
52186;SDS011;38161;53.020;6.598;2024-01-30T09:06:11;15.90;;;10.13;;
52186;SDS011;38161;53.020;6.598;2024-01-30T09:08:37;17.52;;;10.73;;
52186;SDS011;38161;53.020;6.598;2024-01-30T09:11:09;14.93;;;9.60;;
52186;SDS011;38161;53.020;6.598;2024-01-30T09:13:39;15.85;;;10.63;;
52186;SDS011;38161;53.020;6.598;2024-01-30T09:16:05;16.77;;;10.48;;
52186;SDS011;38161;53.020;6.598;2024-01-30T09:18:31;15.68;;;10.35;;
52186;SDS011;38161;53.020;6.598;2024-01-30T09:20:57;19.08;;;11.38;;
52186;SDS011;38161;53.020;6.598;2024-01-30T09:23:23;15.50;;;10.63;;
52186;SDS011;38161;53.020;6.598;2024-01-30T09:25:52;14.25;;;10.35;;
52186;SDS011;38161;53.020;6.598;2024-01-30T09:28:18;15.60;;;10.63;;
52186;SDS011;38161;53.020;6.598;2024-01-30T09:30:43;17.85;;;10.13;;
52186;SDS011;38161;53.020;6.598;2024-01-30T09:33:09;17.45;;;10.38;;
52186;SDS011;38161;53.020;6.598;2024-01-30T09:35:38;16.17;;;10.40;;
52186;SDS011;38161;53.020;6.598;2024-01-30T09:38:04;13.27;;;9.25;;
52186;SDS011;38161;53.020;6.598;2024-01-30T09:40:30;19.42;;;10.77;;
52186;SDS011;38161;53.020;6.598;2024-01-30T09:42:56;18.52;;;10.55;;
52186;SDS011;38161;53.020;6.598;2024-01-30T09:45:25;16.10;;;10.70;;
52186;SDS011;38161;53.020;6.598;2024-01-30T09:47:51;19.42;;;11.63;;
52186;SDS011;38161;53.020;6.598;2024-01-30T09:50:18;14.30;;;9.68;;
52186;SDS011;38161;53.020;6.598;2024-01-30T09:52:45;15.52;;;9.50;;
52186;SDS011;38161;53.020;6.598;2024-01-30T09:55:15;14.52;;;9.40;;
52186;SDS011;38161;53.020;6.598;2024-01-30T09:57:41;19.15;;;10.60;;
52186;SDS011;38161;53.020;6.598;2024-01-30T10:00:07;17.02;;;10.10;;
52186;SDS011;38161;53.020;6.598;2024-01-30T10:05:00;13.32;;;8.82;;
52186;SDS011;38161;53.020;6.598;2024-01-30T10:07:26;15.90;;;9.73;;
52186;SDS011;38161;53.020;6.598;2024-01-30T10:09:52;15.00;;;9.82;;
52186;SDS011;38161;53.020;6.598;2024-01-30T10:12:20;14.88;;;9.48;;
52186;SDS011;38161;53.020;6.598;2024-01-30T10:14:46;14.07;;;9.57;;
52186;SDS011;38161;53.020;6.598;2024-01-30T10:17:12;14.93;;;10.05;;
52186;SDS011;38161;53.020;6.598;2024-01-30T10:19:38;17.17;;;9.25;;
52186;SDS011;38161;53.020;6.598;2024-01-30T10:22:05;17.15;;;9.40;;
52186;SDS011;38161;53.020;6.598;2024-01-30T10:24:35;20.55;;;10.82;;
52186;SDS011;38161;53.020;6.598;2024-01-30T10:27:01;18.15;;;10.27;;
52186;SDS011;38161;53.020;6.598;2024-01-30T10:29:27;18.00;;;9.65;;
52186;SDS011;38161;53.020;6.598;2024-01-30T10:32:00;18.75;;;11.27;;
52186;SDS011;38161;53.020;6.598;2024-01-30T10:34:27;18.92;;;11.25;;
52186;SDS011;38161;53.020;6.598;2024-01-30T10:36:59;17.65;;;10.35;;
52186;SDS011;38161;53.020;6.598;2024-01-30T10:39:30;20.98;;;10.80;;
52186;SDS011;38161;53.020;6.598;2024-01-30T10:42:02;15.43;;;9.35;;
52186;SDS011;38161;53.020;6.598;2024-01-30T10:44:33;16.95;;;10.02;;
52186;SDS011;38161;53.020;6.598;2024-01-30T10:47:06;16.27;;;10.50;;
52186;SDS011;38161;53.020;6.598;2024-01-30T10:49:37;21.60;;;11.80;;
52186;SDS011;38161;53.020;6.598;2024-01-30T10:52:03;16.98;;;9.55;;
52186;SDS011;38161;53.020;6.598;2024-01-30T10:54:31;20.65;;;11.23;;
52186;SDS011;38161;53.020;6.598;2024-01-30T10:56:59;18.20;;;10.90;;
52186;SDS011;38161;53.020;6.598;2024-01-30T10:59:29;19.30;;;11.15;;
52186;SDS011;38161;53.020;6.598;2024-01-30T11:01:57;17.45;;;10.45;;
52186;SDS011;38161;53.020;6.598;2024-01-30T11:04:24;18.23;;;11.30;;
52186;SDS011;38161;53.020;6.598;2024-01-30T11:06:50;18.08;;;10.77;;
52186;SDS011;38161;53.020;6.598;2024-01-30T11:09:17;18.15;;;11.35;;
52186;SDS011;38161;53.020;6.598;2024-01-30T11:11:50;18.20;;;10.52;;
52186;SDS011;38161;53.020;6.598;2024-01-30T11:14:27;18.48;;;11.38;;
52186;SDS011;38161;53.020;6.598;2024-01-30T11:16:58;18.13;;;11.20;;
52186;SDS011;38161;53.020;6.598;2024-01-30T11:19:25;19.42;;;11.02;;
52186;SDS011;38161;53.020;6.598;2024-01-30T11:21:54;17.90;;;10.20;;
52186;SDS011;38161;53.020;6.598;2024-01-30T11:24:22;17.23;;;11.48;;
52186;SDS011;38161;53.020;6.598;2024-01-30T11:27:07;16.80;;;11.18;;
52186;SDS011;38161;53.020;6.598;2024-01-30T11:29:34;18.50;;;10.70;;
52186;SDS011;38161;53.020;6.598;2024-01-30T11:32:00;20.65;;;11.60;;
52186;SDS011;38161;53.020;6.598;2024-01-30T11:34:26;19.98;;;12.00;;
52186;SDS011;38161;53.020;6.598;2024-01-30T11:36:53;19.40;;;12.63;;
52186;SDS011;38161;53.020;6.598;2024-01-30T11:39:25;19.50;;;11.38;;
52186;SDS011;38161;53.020;6.598;2024-01-30T11:41:52;17.60;;;10.80;;
52186;SDS011;38161;53.020;6.598;2024-01-30T11:44:39;19.15;;;11.68;;
52186;SDS011;38161;53.020;6.598;2024-01-30T11:47:04;20.58;;;11.00;;
52186;SDS011;38161;53.020;6.598;2024-01-30T11:49:30;16.50;;;11.90;;
52186;SDS011;38161;53.020;6.598;2024-01-30T11:51:56;14.35;;;10.57;;
52186;SDS011;38161;53.020;6.598;2024-01-30T11:54:22;17.80;;;11.93;;
52186;SDS011;38161;53.020;6.598;2024-01-30T11:56:48;20.15;;;12.88;;
52186;SDS011;38161;53.020;6.598;2024-01-30T11:59:14;20.23;;;12.30;;
52186;SDS011;38161;53.020;6.598;2024-01-30T12:01:40;17.48;;;10.68;;
52186;SDS011;38161;53.020;6.598;2024-01-30T12:04:06;26.05;;;11.07;;
52186;SDS011;38161;53.020;6.598;2024-01-30T12:06:34;19.60;;;10.40;;
52186;SDS011;38161;53.020;6.598;2024-01-30T12:09:02;21.63;;;11.50;;
52186;SDS011;38161;53.020;6.598;2024-01-30T12:11:33;23.33;;;12.55;;
52186;SDS011;38161;53.020;6.598;2024-01-30T12:14:12;23.83;;;15.13;;
52186;SDS011;38161;53.020;6.598;2024-01-30T12:16:38;17.83;;;9.63;;
52186;SDS011;38161;53.020;6.598;2024-01-30T12:19:04;16.60;;;9.13;;
52186;SDS011;38161;53.020;6.598;2024-01-30T12:21:30;13.52;;;8.18;;
52186;SDS011;38161;53.020;6.598;2024-01-30T12:23:56;12.50;;;7.40;;
52186;SDS011;38161;53.020;6.598;2024-01-30T12:26:23;12.77;;;6.57;;
52186;SDS011;38161;53.020;6.598;2024-01-30T12:28:51;14.98;;;6.63;;
52186;SDS011;38161;53.020;6.598;2024-01-30T12:31:26;14.40;;;7.30;;
52186;SDS011;38161;53.020;6.598;2024-01-30T12:33:53;11.48;;;6.05;;
52186;SDS011;38161;53.020;6.598;2024-01-30T12:36:22;10.45;;;4.95;;
52186;SDS011;38161;53.020;6.598;2024-01-30T12:38:51;8.93;;;4.82;;
52186;SDS011;38161;53.020;6.598;2024-01-30T12:41:17;13.95;;;4.40;;
52186;SDS011;38161;53.020;6.598;2024-01-30T12:43:43;12.07;;;4.53;;
52186;SDS011;38161;53.020;6.598;2024-01-30T12:46:09;7.22;;;3.40;;
52186;SDS011;38161;53.020;6.598;2024-01-30T12:48:35;8.98;;;3.70;;
52186;SDS011;38161;53.020;6.598;2024-01-30T12:51:01;9.73;;;3.05;;
52186;SDS011;38161;53.020;6.598;2024-01-30T12:53:27;6.78;;;3.20;;
52186;SDS011;38161;53.020;6.598;2024-01-30T12:55:53;7.90;;;2.83;;
52186;SDS011;38161;53.020;6.598;2024-01-30T12:58:19;5.00;;;1.88;;
52186;SDS011;38161;53.020;6.598;2024-01-30T13:00:45;2.30;;;1.38;;
52186;SDS011;38161;53.020;6.598;2024-01-30T13:03:12;1.67;;;1.20;;
52186;SDS011;38161;53.020;6.598;2024-01-30T13:05:38;3.03;;;1.40;;
52186;SDS011;38161;53.020;6.598;2024-01-30T13:08:04;5.00;;;2.20;;
52186;SDS011;38161;53.020;6.598;2024-01-30T13:10:30;6.30;;;2.85;;
52186;SDS011;38161;53.020;6.598;2024-01-30T13:12:59;6.93;;;4.20;;
52186;SDS011;38161;53.020;6.598;2024-01-30T13:15:24;6.10;;;2.75;;
52186;SDS011;38161;53.020;6.598;2024-01-30T13:17:50;7.10;;;3.80;;
52186;SDS011;38161;53.020;6.598;2024-01-30T13:20:19;9.80;;;4.43;;
52186;SDS011;38161;53.020;6.598;2024-01-30T13:22:49;6.53;;;3.00;;
52186;SDS011;38161;53.020;6.598;2024-01-30T13:25:15;7.40;;;3.22;;
52186;SDS011;38161;53.020;6.598;2024-01-30T13:27:42;4.72;;;2.03;;
52186;SDS011;38161;53.020;6.598;2024-01-30T13:30:08;3.45;;;1.40;;
52186;SDS011;38161;53.020;6.598;2024-01-30T13:32:37;6.55;;;3.60;;
52186;SDS011;38161;53.020;6.598;2024-01-30T13:35:03;6.35;;;2.92;;
52186;SDS011;38161;53.020;6.598;2024-01-30T13:37:29;6.40;;;3.25;;
52186;SDS011;38161;53.020;6.598;2024-01-30T13:39:55;7.70;;;2.45;;
52186;SDS011;38161;53.020;6.598;2024-01-30T13:42:21;3.72;;;1.60;;
52186;SDS011;38161;53.020;6.598;2024-01-30T13:44:48;3.10;;;1.63;;
52186;SDS011;38161;53.020;6.598;2024-01-30T13:47:14;3.90;;;1.52;;
52186;SDS011;38161;53.020;6.598;2024-01-30T13:49:40;3.03;;;1.83;;
52186;SDS011;38161;53.020;6.598;2024-01-30T13:52:06;3.78;;;1.27;;
52186;SDS011;38161;53.020;6.598;2024-01-30T13:54:33;4.18;;;1.30;;
52186;SDS011;38161;53.020;6.598;2024-01-30T13:56:59;4.38;;;1.92;;
52186;SDS011;38161;53.020;6.598;2024-01-30T13:59:25;5.72;;;2.55;;
52186;SDS011;38161;53.020;6.598;2024-01-30T14:01:51;7.60;;;5.15;;
52186;SDS011;38161;53.020;6.598;2024-01-30T14:04:17;5.28;;;3.90;;
52186;SDS011;38161;53.020;6.598;2024-01-30T14:06:42;3.03;;;1.73;;
52186;SDS011;38161;53.020;6.598;2024-01-30T14:09:08;4.15;;;1.90;;
52186;SDS011;38161;53.020;6.598;2024-01-30T14:11:35;6.03;;;3.38;;
52186;SDS011;38161;53.020;6.598;2024-01-30T14:14:01;5.83;;;5.00;;
52186;SDS011;38161;53.020;6.598;2024-01-30T14:16:27;4.38;;;3.30;;
52186;SDS011;38161;53.020;6.598;2024-01-30T14:21:19;3.60;;;1.83;;
52186;SDS011;38161;53.020;6.598;2024-01-30T14:23:45;4.50;;;1.70;;
52186;SDS011;38161;53.020;6.598;2024-01-30T14:26:12;2.72;;;1.58;;
52186;SDS011;38161;53.020;6.598;2024-01-30T14:28:38;5.65;;;1.60;;
52186;SDS011;38161;53.020;6.598;2024-01-30T14:31:04;2.45;;;1.35;;
52186;SDS011;38161;53.020;6.598;2024-01-30T14:33:30;3.55;;;1.70;;